createdAt,value
2018-11-11T00:03:55.039Z,11.2
2018-11-11T00:13:58.507Z,11.1
2018-11-11T00:24:01.957Z,11.2
2018-11-11T00:34:05.419Z,11.2
2018-11-11T00:44:08.865Z,11.1
2018-11-11T00:54:12.338Z,11.2
2018-11-11T01:04:15.811Z,11.2
2018-11-11T01:14:19.279Z,11.1
2018-11-11T01:24:22.745Z,11.1
2018-11-11T01:34:26.205Z,11.2
2018-11-11T01:44:29.666Z,11.2
2018-11-11T01:54:33.125Z,11
2018-11-11T02:04:36.561Z,11
2018-11-11T02:14:40.018Z,11.1
2018-11-11T02:24:43.490Z,11.1
2018-11-11T02:34:46.973Z,10.9
2018-11-11T02:44:50.394Z,11
2018-11-11T02:54:53.862Z,10.9
2018-11-11T03:04:57.304Z,11
2018-11-11T03:15:00.745Z,11
2018-11-11T03:35:12.504Z,10.6
2018-11-11T03:45:15.991Z,10.7
2018-11-11T03:55:19.454Z,10.7
2018-11-11T04:05:22.942Z,10.7
2018-11-11T04:15:26.354Z,10.8
2018-11-11T04:25:29.836Z,10.8
2018-11-11T04:35:33.250Z,10.7
2018-11-11T04:45:36.651Z,10.7
2018-11-11T04:55:40.142Z,10.7
2018-11-11T05:05:43.590Z,10.7
2018-11-11T05:15:47.039Z,10.6
2018-11-11T05:25:50.504Z,10.8
2018-11-11T05:35:53.915Z,10.8
2018-11-11T05:45:57.335Z,10.8
2018-11-11T05:56:01.789Z,11
2018-11-11T06:06:05.246Z,10.8
2018-11-11T06:16:08.693Z,10.9
2018-11-11T06:26:12.157Z,11
2018-11-11T06:36:15.623Z,10.9
2018-11-11T06:46:19.061Z,11
2018-11-11T06:56:22.623Z,11
2018-11-11T07:06:26.069Z,11.1
2018-11-11T07:16:29.504Z,11
2018-11-11T07:26:32.961Z,11.1
2018-11-11T07:36:36.422Z,11.1
2018-11-11T07:46:39.859Z,11.2
2018-11-11T07:56:43.268Z,11.1
2018-11-11T08:06:46.728Z,11.1
2018-11-11T08:16:50.277Z,11.2
2018-11-11T08:26:54.204Z,11.3
2018-11-11T08:36:57.649Z,11.3
2018-11-11T08:47:01.106Z,11
2018-11-11T08:57:04.533Z,11.4
2018-11-11T09:07:07.996Z,11.5
2018-11-11T09:17:11.478Z,11.6
2018-11-11T09:27:15.045Z,11.6
2018-11-11T09:37:18.491Z,11.6
2018-11-11T09:47:21.930Z,11.7
2018-11-11T09:57:25.381Z,11.8
2018-11-11T10:07:28.841Z,11.6
2018-11-11T10:17:32.304Z,11.4
2018-11-11T10:27:35.760Z,11.9
2018-11-11T10:37:39.345Z,12.6
2018-11-11T10:47:42.913Z,12.6
2018-11-11T10:57:46.343Z,12.5
2018-11-11T11:07:49.785Z,12.4
2018-11-11T11:17:53.235Z,12.4
2018-11-11T11:27:56.680Z,12.6
2018-11-11T11:38:00.182Z,12.9
2018-11-11T11:48:03.868Z,12.8
2018-11-11T11:58:07.360Z,13
2018-11-11T12:08:11.473Z,13.2
2018-11-11T12:18:14.944Z,13.2
2018-11-11T12:28:18.408Z,13.4
2018-11-11T12:38:21.872Z,13.5
2018-11-11T12:48:25.347Z,13.7
2018-11-11T12:58:28.753Z,13.9
2018-11-11T13:08:32.182Z,14
2018-11-11T13:18:35.635Z,14.1
2018-11-11T13:28:39.103Z,14.1
2018-11-11T13:38:42.655Z,14.2
2018-11-11T13:48:46.094Z,14.2
2018-11-11T13:58:49.504Z,14.2
2018-11-11T14:08:52.930Z,14.2
2018-11-11T14:18:56.683Z,14
2018-11-11T14:29:01.672Z,14
2018-11-11T14:39:05.108Z,14.1
2018-11-11T14:49:08.685Z,14.1
2018-11-11T14:59:12.549Z,13.9
2018-11-11T15:09:15.966Z,13.9
2018-11-11T15:19:19.549Z,13.8
2018-11-11T15:29:23.391Z,13.7
2018-11-11T15:39:26.860Z,13.7
2018-11-11T15:49:30.290Z,13.5
2018-11-11T15:59:33.752Z,13.4
2018-11-11T16:09:37.208Z,13.1
2018-11-11T16:19:40.691Z,13.2
2018-11-11T16:29:44.406Z,13
2018-11-11T16:39:47.985Z,12.7
2018-11-11T16:49:52.044Z,12.7
2018-11-11T16:59:55.511Z,12.6
2018-11-11T17:09:58.959Z,12.4
2018-11-11T17:20:02.508Z,12.4
2018-11-11T17:30:07.433Z,12.2
2018-11-11T17:40:11.384Z,12.1
2018-11-11T17:50:15.164Z,12.2
2018-11-11T18:00:18.619Z,12
2018-11-11T18:10:22.213Z,11.9
2018-11-11T18:20:25.964Z,11.7
2018-11-11T18:30:29.419Z,11.8
2018-11-11T18:40:32.852Z,11.8
2018-11-11T18:50:36.314Z,11.6
2018-11-11T19:00:39.779Z,11.5
2018-11-11T19:10:43.436Z,11.5
2018-11-11T19:20:47.574Z,11.3
2018-11-11T19:30:51.052Z,11.2
2018-11-11T19:40:54.507Z,11.3
2018-11-11T19:50:57.979Z,11.2
2018-11-11T20:01:01.432Z,11.2
2018-11-11T20:11:04.899Z,11.1
2018-11-11T20:21:08.349Z,11.1
2018-11-11T20:31:11.841Z,11
2018-11-11T20:41:15.260Z,11
2018-11-11T20:51:18.698Z,10.9
2018-11-11T21:01:22.171Z,10.8
2018-11-11T21:11:25.678Z,10.9
2018-11-11T21:21:29.422Z,10.8
2018-11-11T21:31:33.447Z,10.8
2018-11-11T21:41:36.890Z,10.8
2018-11-11T21:51:40.352Z,10.7
2018-11-11T22:01:43.779Z,10.6
2018-11-11T22:11:47.290Z,10.5
2018-11-11T22:21:51.244Z,10.5
2018-11-11T22:31:54.672Z,10.5
2018-11-11T22:41:58.109Z,10.4
2018-11-11T22:52:01.570Z,10.5
2018-11-11T23:02:05.064Z,10.5
2018-11-11T23:12:08.507Z,10.6
2018-11-11T23:22:11.969Z,10.7
2018-11-11T23:32:15.414Z,10.4
2018-11-11T23:42:18.856Z,10.1
2018-11-11T23:52:22.283Z,10
